Time;durP1;ratioP1;P1;durP2;ratioP2;P2;SDS_P1;SDS_P2;PMS_P1;PMS_P2;Temp;Humidity;BMP_temperature;BMP_pressure;BME280_temperature;BME280_humidity;BME280_pressure;Samples;Min_cycle;Max_cycle;Signal;HPM_P1;HPM_P2
2022/07/31 00:00:40;;;;;;;5.47;4.97;;;27.10;42.70;;;;;;4986567;28;20442;-51
2022/07/31 00:03:06;;;;;;;5.53;5.13;;;27.00;43.00;;;;;;4984659;28;20205;-46
2022/07/31 00:05:33;;;;;;;5.80;5.23;;;27.00;42.90;;;;;;4981386;28;20312;-48
2022/07/31 00:07:59;;;;;;;5.63;5.13;;;27.00;42.90;;;;;;4989666;28;20441;-52
2022/07/31 00:10:25;;;;;;;4.97;4.57;;;27.00;43.10;;;;;;4984910;28;20471;-49
2022/07/31 00:12:50;;;;;;;5.70;5.20;;;27.00;43.10;;;;;;4975896;28;20438;-47
2022/07/31 00:15:17;;;;;;;6.03;5.53;;;27.00;43.20;;;;;;4983772;28;20563;-47
2022/07/31 00:17:43;;;;;;;8.43;5.30;;;26.90;43.40;;;;;;4990706;28;20187;-46
2022/07/31 00:20:14;;;;;;;6.90;5.47;;;26.90;43.30;;;;;;4978189;28;20942;-47
2022/07/31 00:22:41;;;;;;;8.37;5.20;;;26.90;43.40;;;;;;4977695;28;20983;-50
2022/07/31 00:25:07;;;;;;;9.40;6.00;;;26.90;43.30;;;;;;4984034;28;20842;-48
2022/07/31 00:27:33;;;;;;;5.23;4.80;;;26.90;43.30;;;;;;4987446;28;20561;-47
2022/07/31 00:29:58;;;;;;;5.60;5.10;;;26.80;43.20;;;;;;4983983;28;20521;-49
2022/07/31 00:32:24;;;;;;;5.30;4.80;;;26.80;43.30;;;;;;4982803;28;20199;-48
2022/07/31 00:34:50;;;;;;;5.13;4.73;;;26.70;43.50;;;;;;4984818;28;20192;-47
2022/07/31 00:37:16;;;;;;;5.80;5.20;;;26.70;43.80;;;;;;4988360;28;20526;-48
2022/07/31 00:39:45;;;;;;;6.13;5.63;;;26.70;43.90;;;;;;4983607;28;20286;-52
2022/07/31 00:42:21;;;;;;;5.70;5.10;;;26.70;43.90;;;;;;4985494;28;20540;-48
2022/07/31 00:44:48;;;;;;;5.33;4.83;;;26.70;44.10;;;;;;4987975;28;20504;-47
2022/07/31 00:47:16;;;;;;;5.33;4.93;;;26.60;44.10;;;;;;4984902;28;20437;-51
2022/07/31 00:49:41;;;;;;;8.83;4.80;;;26.60;44.30;;;;;;4982284;28;20446;-53
2022/07/31 00:52:07;;;;;;;6.10;5.17;;;26.40;44.40;;;;;;4977790;28;20446;-47
2022/07/31 00:54:36;;;;;;;4.80;4.40;;;26.40;44.60;;;;;;4980265;28;20195;-47
2022/07/31 00:57:02;;;;;;;5.37;4.93;;;26.40;44.40;;;;;;4976747;28;20199;-49
2022/07/31 00:59:29;;;;;;;5.23;4.83;;;26.40;44.70;;;;;;4982086;28;20549;-48
2022/07/31 01:01:56;;;;;;;8.70;5.00;;;26.30;44.80;;;;;;4983373;28;20446;-49
2022/07/31 01:04:22;;;;;;;4.83;4.43;;;26.10;45.10;;;;;;4986203;28;20507;-50
2022/07/31 01:06:51;;;;;;;6.70;4.70;;;26.10;45.20;;;;;;4987863;28;20442;-48
2022/07/31 01:09:16;;;;;;;5.00;4.60;;;26.20;45.00;;;;;;4980971;28;20457;-49
2022/07/31 01:11:59;;;;;;;5.10;4.70;;;26.20;44.90;;;;;;4987984;28;20446;-47
2022/07/31 01:14:28;;;;;;;5.80;5.20;;;26.30;44.80;;;;;;4984235;28;20201;-50
2022/07/31 01:16:57;;;;;;;7.40;5.23;;;26.40;44.80;;;;;;4987057;28;20443;-50
2022/07/31 01:19:44;;;;;;;5.00;4.60;;;26.30;44.80;;;;;;4986371;28;20438;-51
2022/07/31 01:22:21;;;;;;;5.27;4.73;;;26.20;44.90;;;;;;4981501;28;20548;-47
2022/07/31 01:24:56;;;;;;;5.80;5.13;;;26.10;45.20;;;;;;4982634;28;20507;-51
2022/07/31 01:27:49;;;;;;;5.47;5.13;;;26.10;45.30;;;;;;4975655;28;20473;-48
2022/07/31 01:30:15;;;;;;;4.63;4.33;;;26.10;45.20;;;;;;4987293;28;21047;-49
2022/07/31 01:32:48;;;;;;;5.40;4.90;;;26.10;45.20;;;;;;4986028;28;20472;-47
2022/07/31 01:35:24;;;;;;;4.90;4.50;;;26.10;45.30;;;;;;4981799;28;20453;-51
2022/07/31 01:37:55;;;;;;;5.10;4.70;;;26.10;45.30;;;;;;4982065;28;20511;-48
2022/07/31 01:40:53;;;;;;;5.17;4.77;;;26.10;45.30;;;;;;4979862;28;20445;-51
2022/07/31 01:43:22;;;;;;;5.47;4.97;;;26.10;45.20;;;;;;4983846;28;20493;-49
2022/07/31 01:45:51;;;;;;;5.57;5.17;;;25.90;45.80;;;;;;4978145;28;20887;-48
2022/07/31 01:48:19;;;;;;;5.27;4.77;;;25.90;45.80;;;;;;4983479;28;20457;-50
2022/07/31 01:50:47;;;;;;;8.07;6.47;;;25.90;45.80;;;;;;4984384;28;20449;-49
2022/07/31 01:53:16;;;;;;;10.07;7.93;;;25.90;45.60;;;;;;4981746;28;20446;-50
2022/07/31 01:55:43;;;;;;;7.67;7.00;;;25.90;45.70;;;;;;4981860;28;20441;-48
2022/07/31 01:58:10;;;;;;;11.10;8.10;;;26.00;45.50;;;;;;4980382;28;20449;-51
2022/07/31 02:00:36;;;;;;;9.40;7.83;;;26.00;45.40;;;;;;4982558;28;20457;-47
2022/07/31 02:03:04;;;;;;;7.90;7.10;;;26.00;45.50;;;;;;4985474;28;20446;-52
2022/07/31 02:05:31;;;;;;;7.97;6.83;;;26.00;45.60;;;;;;4983328;28;20556;-51
2022/07/31 02:07:57;;;;;;;5.60;5.20;;;25.90;45.50;;;;;;4976879;28;20529;-50
2022/07/31 02:10:24;;;;;;;5.87;5.27;;;25.90;45.60;;;;;;4976780;28;20558;-52
2022/07/31 02:12:50;;;;;;;6.30;5.70;;;25.90;45.80;;;;;;4979613;28;20437;-49
2022/07/31 02:15:17;;;;;;;5.20;4.80;;;25.90;45.90;;;;;;4987130;28;20507;-47
2022/07/31 02:17:45;;;;;;;5.90;5.40;;;25.70;46.10;;;;;;4980309;28;20832;-49
2022/07/31 02:20:12;;;;;;;5.03;4.63;;;25.80;46.10;;;;;;4985184;28;20580;-47
2022/07/31 02:22:38;;;;;;;5.23;4.77;;;25.80;45.90;;;;;;4986555;28;20426;-48
2022/07/31 02:25:05;;;;;;;4.80;4.40;;;25.90;45.80;;;;;;4983580;28;20497;-49
2022/07/31 02:27:32;;;;;;;7.53;5.10;;;25.90;46.00;;;;;;4987730;28;20481;-48
2022/07/31 02:30:01;;;;;;;5.20;4.80;;;25.80;45.80;;;;;;4991838;28;20457;-48
2022/07/31 02:32:28;;;;;;;5.60;4.77;;;25.80;45.80;;;;;;4988663;28;20441;-48
2022/07/31 02:34:55;;;;;;;6.50;4.60;;;25.80;46.00;;;;;;4983470;28;20461;-48
2022/07/31 02:37:22;;;;;;;4.93;4.47;;;25.80;45.80;;;;;;4990342;28;20446;-49
2022/07/31 02:39:51;;;;;;;5.23;4.83;;;25.70;46.00;;;;;;4988808;28;20468;-48
2022/07/31 02:42:16;;;;;;;4.93;4.60;;;25.70;46.10;;;;;;4982542;28;20426;-49
2022/07/31 02:44:42;;;;;;;5.47;4.93;;;25.70;46.10;;;;;;4986516;28;20492;-51
2022/07/31 02:47:09;;;;;;;5.83;5.30;;;25.70;46.20;;;;;;4992016;28;20681;-48
2022/07/31 02:49:36;;;;;;;6.40;4.50;;;25.70;46.00;;;;;;4985468;28;20505;-48
2022/07/31 02:52:03;;;;;;;5.80;4.80;;;25.70;46.10;;;;;;4986047;28;20441;-52
2022/07/31 02:54:29;;;;;;;4.90;4.40;;;25.80;46.20;;;;;;4992517;28;20852;-48
2022/07/31 02:56:55;;;;;;;4.80;4.40;;;25.80;46.20;;;;;;4991242;28;20478;-48
2022/07/31 02:59:21;;;;;;;5.67;5.00;;;25.80;46.00;;;;;;4984892;28;20449;-53
2022/07/31 03:01:47;;;;;;;5.10;4.70;;;25.80;46.00;;;;;;4989552;28;20453;-52
2022/07/31 03:04:12;;;;;;;7.03;4.57;;;25.80;46.00;;;;;;4981142;28;20226;-51
2022/07/31 03:06:38;;;;;;;5.60;5.03;;;25.70;46.10;;;;;;4984781;28;20592;-49
2022/07/31 03:09:04;;;;;;;4.77;4.37;;;25.70;46.00;;;;;;4984801;28;20213;-49
2022/07/31 03:11:29;;;;;;;5.40;5.00;;;25.70;46.10;;;;;;4988949;28;20636;-48
2022/07/31 03:13:59;;;;;;;9.43;4.60;;;25.60;46.00;;;;;;4987505;28;20231;-47
2022/07/31 03:16:26;;;;;;;5.20;4.87;;;25.60;46.10;;;;;;4987287;28;20204;-48
2022/07/31 03:18:53;;;;;;;5.37;4.97;;;25.50;46.00;;;;;;4986366;28;20445;-49
2022/07/31 03:21:21;;;;;;;5.17;4.70;;;25.50;46.20;;;;;;4978675;28;20452;-48
2022/07/31 03:23:46;;;;;;;5.07;4.77;;;25.40;46.60;;;;;;4989949;28;20457;-49
2022/07/31 03:26:13;;;;;;;5.10;4.60;;;25.40;46.50;;;;;;4990638;28;20442;-49
2022/07/31 03:28:39;;;;;;;5.07;4.77;;;25.30;46.50;;;;;;4989259;28;20199;-47
2022/07/31 03:31:06;;;;;;;12.10;5.23;;;25.20;46.60;;;;;;4980283;28;20900;-47
2022/07/31 03:33:32;;;;;;;5.70;5.30;;;25.10;47.00;;;;;;4988029;28;20198;-49
2022/07/31 03:35:59;;;;;;;5.70;5.30;;;25.10;47.20;;;;;;4978309;28;20532;-48
2022/07/31 03:38:25;;;;;;;5.03;4.53;;;25.00;47.20;;;;;;4985043;28;20449;-47
2022/07/31 03:40:52;;;;;;;7.40;5.20;;;24.80;47.80;;;;;;4986520;28;20451;-48
2022/07/31 03:43:19;;;;;;;6.63;5.10;;;24.80;47.60;;;;;;4984410;28;20441;-47
2022/07/31 03:45:45;;;;;;;4.80;4.50;;;24.80;48.30;;;;;;4980418;28;20898;-47
2022/07/31 03:48:11;;;;;;;5.73;5.23;;;24.70;47.90;;;;;;4976797;28;20831;-49
2022/07/31 03:50:39;;;;;;;4.93;4.63;;;24.70;48.20;;;;;;4985179;28;20446;-47
2022/07/31 03:53:05;;;;;;;5.53;5.03;;;24.60;47.90;;;;;;4989363;28;20230;-47
2022/07/31 03:55:34;;;;;;;5.70;5.27;;;24.60;48.10;;;;;;4976579;28;20473;-47
2022/07/31 03:58:01;;;;;;;5.17;4.87;;;24.60;48.20;;;;;;4984078;28;20903;-48
2022/07/31 04:00:27;;;;;;;4.80;4.50;;;24.50;48.30;;;;;;4981240;28;20446;-52
2022/07/31 04:02:55;;;;;;;6.03;5.43;;;24.50;48.50;;;;;;4984922;28;20461;-47
2022/07/31 04:05:21;;;;;;;5.17;4.67;;;24.60;48.40;;;;;;4988125;28;21059;-49
2022/07/31 04:07:46;;;;;;;4.73;4.40;;;24.50;48.70;;;;;;4984298;28;20434;-46
2022/07/31 04:10:12;;;;;;;6.27;5.70;;;24.50;48.50;;;;;;4982576;28;20521;-47
2022/07/31 04:12:38;;;;;;;5.50;5.10;;;24.50;48.40;;;;;;4988024;28;20190;-47
2022/07/31 04:15:04;;;;;;;5.10;4.70;;;24.40;48.60;;;;;;4985589;28;20211;-46
2022/07/31 04:17:30;;;;;;;5.10;4.70;;;24.40;48.70;;;;;;4985665;28;20186;-47
2022/07/31 04:19:55;;;;;;;4.70;4.40;;;24.40;48.80;;;;;;4987977;28;20504;-48
2022/07/31 04:22:21;;;;;;;5.40;4.90;;;24.40;48.70;;;;;;4985686;28;20191;-47
2022/07/31 04:24:46;;;;;;;5.53;5.03;;;24.40;48.80;;;;;;4977907;28;20249;-48
2022/07/31 04:27:16;;;;;;;6.00;5.60;;;24.40;48.80;;;;;;4981755;28;20269;-50
2022/07/31 04:29:42;;;;;;;5.00;4.60;;;24.30;48.90;;;;;;4983121;28;20294;-50
2022/07/31 04:32:08;;;;;;;5.47;5.00;;;24.40;49.10;;;;;;4984724;28;20490;-48
2022/07/31 04:34:33;;;;;;;5.00;4.60;;;24.40;49.00;;;;;;4976171;28;20438;-48
2022/07/31 04:36:59;;;;;;;4.70;4.30;;;24.50;48.90;;;;;;4977175;28;20226;-48
2022/07/31 04:39:25;;;;;;;4.43;4.13;;;24.60;48.80;;;;;;4981768;28;20557;-47
2022/07/31 04:41:50;;;;;;;5.70;5.23;;;24.70;48.70;;;;;;4988863;28;20198;-45
2022/07/31 04:44:16;;;;;;;5.37;4.97;;;24.70;48.60;;;;;;4983945;28;20662;-45
2022/07/31 04:46:42;;;;;;;5.47;4.97;;;24.80;48.30;;;;;;4984711;28;20193;-47
2022/07/31 04:49:11;;;;;;;4.80;4.30;;;24.90;48.30;;;;;;4976382;28;20654;-51
2022/07/31 04:51:37;;;;;;;5.17;4.87;;;25.00;48.00;;;;;;4988581;28;20878;-53
2022/07/31 04:54:03;;;;;;;5.23;4.83;;;25.00;47.90;;;;;;4984697;28;20520;-50
2022/07/31 04:56:36;;;;;;;5.30;4.80;;;25.00;47.70;;;;;;4986044;28;20206;-46
2022/07/31 04:59:19;;;;;;;5.23;4.67;;;25.00;47.70;;;;;;4982991;28;20210;-47
2022/07/31 05:01:45;;;;;;;4.97;4.67;;;24.80;48.40;;;;;;4979018;28;20457;-50
2022/07/31 05:04:11;;;;;;;5.60;4.37;;;24.50;48.70;;;;;;4984155;28;20461;-50
2022/07/31 05:06:42;;;;;;;5.13;4.67;;;24.00;49.90;;;;;;4976423;28;20607;-50
2022/07/31 05:09:11;;;;;;;5.33;4.80;;;23.70;50.70;;;;;;4989777;28;20446;-47
2022/07/31 05:11:37;;;;;;;5.80;4.63;;;23.60;51.00;;;;;;4976842;28;20440;-47
2022/07/31 05:14:05;;;;;;;5.17;4.77;;;23.50;51.30;;;;;;4980210;28;20446;-50
2022/07/31 05:16:31;;;;;;;5.33;5.03;;;23.70;51.20;;;;;;4985206;28;20242;-48
2022/07/31 05:18:57;;;;;;;5.50;5.07;;;23.90;50.80;;;;;;4978760;28;20451;-47
2022/07/31 05:21:25;;;;;;;4.93;4.40;;;24.00;50.70;;;;;;4984499;28;20450;-50
2022/07/31 05:23:52;;;;;;;5.30;4.90;;;24.10;50.40;;;;;;4980929;28;20441;-52
2022/07/31 05:26:19;;;;;;;4.57;4.27;;;24.10;50.40;;;;;;4981724;28;20458;-51
2022/07/31 05:28:45;;;;;;;5.33;4.80;;;24.10;50.40;;;;;;4975733;28;20461;-52
2022/07/31 05:31:11;;;;;;;5.23;4.93;;;24.20;50.40;;;;;;4975537;28;20442;-49
2022/07/31 05:33:38;;;;;;;5.50;5.10;;;24.10;51.10;;;;;;4981230;28;20442;-48
2022/07/31 05:36:04;;;;;;;5.13;4.73;;;23.90;50.80;;;;;;4984576;28;20449;-52
2022/07/31 05:38:30;;;;;;;5.53;5.03;;;23.90;51.20;;;;;;4980633;28;20446;-52
2022/07/31 05:40:55;;;;;;;4.93;4.43;;;23.80;51.30;;;;;;4976336;28;20456;-46
2022/07/31 05:43:21;;;;;;;5.20;4.27;;;23.80;51.40;;;;;;4986462;28;20710;-52
2022/07/31 05:45:47;;;;;;;5.30;4.53;;;23.80;51.40;;;;;;4984813;28;20230;-51
2022/07/31 05:48:13;;;;;;;4.87;4.47;;;23.90;51.50;;;;;;4978712;28;20689;-51
2022/07/31 05:50:43;;;;;;;4.37;4.03;;;24.20;51.10;;;;;;4987632;28;20561;-46
2022/07/31 05:53:14;;;;;;;4.73;4.37;;;24.50;50.50;;;;;;4975374;28;20453;-50
2022/07/31 05:55:41;;;;;;;4.23;3.93;;;24.70;50.00;;;;;;4975843;28;20841;-53
2022/07/31 05:58:07;;;;;;;4.37;4.07;;;24.90;49.40;;;;;;4981992;28;20945;-49
2022/07/31 06:00:33;;;;;;;4.10;3.80;;;25.10;49.00;;;;;;4988093;28;20444;-50
2022/07/31 06:02:59;;;;;;;4.63;4.33;;;25.20;48.80;;;;;;4979923;28;20446;-53
2022/07/31 06:05:26;;;;;;;4.87;4.47;;;25.40;48.60;;;;;;4981711;28;20996;-46
2022/07/31 06:07:51;;;;;;;4.77;4.17;;;25.50;48.20;;;;;;4986940;28;20205;-48
2022/07/31 06:10:17;;;;;;;6.10;5.30;;;25.60;48.10;;;;;;4984168;28;20438;-51
2022/07/31 06:12:43;;;;;;;5.40;4.90;;;25.60;48.00;;;;;;4981952;28;20241;-49
2022/07/31 06:15:09;;;;;;;5.00;4.50;;;25.60;48.00;;;;;;4981201;28;20199;-51
2022/07/31 06:17:37;;;;;;;4.80;4.40;;;25.60;48.10;;;;;;4986333;28;20200;-50
2022/07/31 06:20:03;;;;;;;5.23;4.93;;;25.60;48.20;;;;;;4983092;28;20617;-52
2022/07/31 06:22:29;;;;;;;5.73;4.10;;;25.50;48.00;;;;;;4985522;28;20569;-50
2022/07/31 06:24:55;;;;;;;4.67;4.37;;;25.20;48.30;;;;;;4983012;28;20268;-49
2022/07/31 06:27:21;;;;;;;5.00;4.60;;;25.30;48.60;;;;;;4978942;28;20600;-49
2022/07/31 06:29:47;;;;;;;5.20;4.80;;;25.20;48.90;;;;;;4984676;28;20456;-49
2022/07/31 06:32:13;;;;;;;5.77;5.27;;;25.30;48.90;;;;;;4982743;28;20477;-50
2022/07/31 06:34:38;;;;;;;5.37;4.87;;;25.40;48.70;;;;;;4985396;28;20531;-48
2022/07/31 06:37:04;;;;;;;5.00;4.57;;;25.50;48.60;;;;;;4988601;28;20430;-50
2022/07/31 06:39:30;;;;;;;4.30;4.00;;;25.50;48.40;;;;;;4990563;28;20277;-51
2022/07/31 06:41:55;;;;;;;4.77;4.37;;;25.50;48.40;;;;;;4988256;28;20202;-50
2022/07/31 06:44:21;;;;;;;4.10;3.80;;;25.50;48.30;;;;;;4984603;28;20311;-50
2022/07/31 06:46:47;;;;;;;4.33;3.93;;;25.60;48.10;;;;;;4971019;28;20195;-47
2022/07/31 06:49:14;;;;;;;4.50;4.20;;;25.60;47.70;;;;;;4975862;28;20198;-51
2022/07/31 06:51:40;;;;;;;4.30;4.00;;;25.40;47.80;;;;;;4984564;28;20465;-50
2022/07/31 06:54:08;;;;;;;4.17;3.87;;;25.20;47.90;;;;;;4975003;28;20545;-49
2022/07/31 06:56:35;;;;;;;4.20;3.90;;;25.00;48.50;;;;;;4979871;28;20982;-50
2022/07/31 06:59:01;;;;;;;4.07;3.77;;;25.10;48.60;;;;;;4985947;28;20437;-50
2022/07/31 07:01:27;;;;;;;6.13;4.20;;;25.00;48.80;;;;;;4989186;28;20450;-49
2022/07/31 07:03:53;;;;;;;3.80;3.60;;;24.70;49.80;;;;;;4980542;28;20973;-49
2022/07/31 07:06:19;;;;;;;4.63;4.23;;;24.80;49.40;;;;;;4988333;28;20441;-49
2022/07/31 07:08:45;;;;;;;4.10;3.90;;;24.80;49.50;;;;;;4992060;28;20200;-50
2022/07/31 07:11:11;;;;;;;4.23;3.93;;;24.60;49.90;;;;;;4992588;28;20198;-50
2022/07/31 07:13:36;;;;;;;3.87;3.67;;;24.80;49.70;;;;;;4976219;28;20888;-51
2022/07/31 07:16:02;;;;;;;3.80;3.50;;;24.80;49.20;;;;;;4975837;28;20729;-53
2022/07/31 07:18:28;;;;;;;4.70;4.00;;;24.70;49.40;;;;;;4972623;28;20659;-52
2022/07/31 07:20:54;;;;;;;3.70;3.40;;;24.80;49.40;;;;;;4982547;28;20473;-51
2022/07/31 07:23:20;;;;;;;8.83;3.53;;;24.90;48.90;;;;;;4984787;28;20661;-50
2022/07/31 07:25:46;;;;;;;3.93;3.67;;;25.10;48.60;;;;;;4992781;28;20231;-50
2022/07/31 07:28:12;;;;;;;3.73;3.43;;;25.10;48.40;;;;;;4979444;28;20457;-51
2022/07/31 07:30:38;;;;;;;4.37;3.53;;;25.40;48.30;;;;;;4990461;28;20190;-52
2022/07/31 07:33:04;;;;;;;4.10;2.97;;;25.60;48.00;;;;;;4987571;28;21151;-47
2022/07/31 07:35:31;;;;;;;3.67;3.47;;;25.60;47.70;;;;;;4992752;28;20248;-49
2022/07/31 07:37:57;;;;;;;3.40;3.20;;;25.50;48.20;;;;;;4990327;28;20446;-47
2022/07/31 07:40:24;;;;;;;3.97;3.67;;;25.60;48.10;;;;;;4988626;28;20457;-47
2022/07/31 07:42:50;;;;;;;3.83;3.53;;;25.90;47.60;;;;;;4988902;28;20863;-48
2022/07/31 07:45:16;;;;;;;5.20;3.23;;;26.10;47.60;;;;;;4985364;28;20500;-47
2022/07/31 07:47:41;;;;;;;3.67;3.47;;;26.20;47.10;;;;;;4985203;28;20190;-46
2022/07/31 07:50:08;;;;;;;4.63;3.80;;;26.40;46.80;;;;;;4987431;28;20273;-49
2022/07/31 07:52:35;;;;;;;5.47;3.40;;;26.20;46.70;;;;;;4980536;28;20207;-47
2022/07/31 07:55:01;;;;;;;3.47;3.27;;;26.20;46.60;;;;;;4984815;28;20434;-47
2022/07/31 07:57:27;;;;;;;4.10;3.13;;;26.50;46.30;;;;;;4981027;28;20953;-52
2022/07/31 07:59:53;;;;;;;3.63;3.30;;;26.60;46.20;;;;;;4987362;28;20219;-49
2022/07/31 08:02:18;;;;;;;3.13;2.93;;;26.60;46.10;;;;;;4980932;28;20528;-46
2022/07/31 08:04:44;;;;;;;3.57;3.30;;;26.70;46.00;;;;;;4979051;28;20237;-50
2022/07/31 08:07:10;;;;;;;4.80;3.60;;;26.80;45.70;;;;;;4987139;28;20186;-46
2022/07/31 08:09:36;;;;;;;3.90;3.30;;;27.10;45.30;;;;;;4989469;28;20229;-46
2022/07/31 08:12:05;;;;;;;3.43;3.20;;;27.00;44.80;;;;;;4986683;28;20199;-46
2022/07/31 08:14:30;;;;;;;4.97;3.43;;;27.00;45.50;;;;;;4974839;28;20469;-50
2022/07/31 08:16:56;;;;;;;4.10;3.90;;;27.00;44.70;;;;;;5000264;28;20964;-52
2022/07/31 08:19:22;;;;;;;4.30;3.13;;;27.20;44.30;;;;;;4985087;28;20214;-49
2022/07/31 08:21:48;;;;;;;3.60;3.30;;;27.40;44.10;;;;;;4988999;28;20190;-46
2022/07/31 08:24:17;;;;;;;3.30;3.07;;;27.60;43.50;;;;;;4980685;28;20368;-49
2022/07/31 08:29:27;;;;;;;3.50;3.20;;;27.60;43.30;;;;;;4985088;28;20888;-46
2022/07/31 08:31:53;;;;;;;3.53;3.30;;;27.60;43.20;;;;;;4985033;28;20454;-48
2022/07/31 08:34:19;;;;;;;4.10;3.50;;;27.40;42.90;;;;;;4973219;28;20658;-47
2022/07/31 08:36:45;;;;;;;3.97;3.33;;;27.50;43.00;;;;;;4987031;28;20534;-46
2022/07/31 08:39:10;;;;;;;4.03;3.70;;;27.80;42.90;;;;;;4989729;28;20268;-51
2022/07/31 08:41:39;;;;;;;4.27;3.43;;;27.90;42.40;;;;;;4986411;28;20195;-48
2022/07/31 08:44:09;;;;;;;3.50;3.30;;;28.10;41.90;;;;;;4984171;28;20222;-49
2022/07/31 08:46:36;;;;;;;3.70;3.40;;;28.40;41.30;;;;;;4984077;28;20446;-51
2022/07/31 08:49:03;;;;;;;3.50;2.83;;;28.50;41.30;;;;;;4984004;28;20937;-47
2022/07/31 08:51:34;;;;;;;4.73;3.30;;;28.60;40.90;;;;;;4988747;28;20447;-47
2022/07/31 08:54:01;;;;;;;3.30;3.00;;;28.50;41.00;;;;;;4978812;28;20450;-47
2022/07/31 08:56:28;;;;;;;4.13;3.13;;;28.50;41.40;;;;;;4984243;28;20467;-48
2022/07/31 08:58:56;;;;;;;3.17;3.07;;;28.70;39.50;;;;;;4989318;28;20476;-51
2022/07/31 09:01:22;;;;;;;4.00;3.60;;;29.00;39.70;;;;;;4989925;28;20426;-48
2022/07/31 09:03:48;;;;;;;4.60;3.47;;;29.20;38.70;;;;;;4988919;28;20433;-47
2022/07/31 09:06:13;;;;;;;5.73;3.17;;;29.40;37.40;;;;;;4991636;28;20207;-50
2022/07/31 09:08:39;;;;;;;5.10;4.27;;;29.60;36.50;;;;;;4984055;28;20206;-47
2022/07/31 09:11:10;;;;;;;4.37;2.80;;;29.70;35.90;;;;;;4992061;28;20246;-46
2022/07/31 09:13:36;;;;;;;3.30;3.00;;;29.90;35.30;;;;;;4987788;28;20460;-46
2022/07/31 09:16:03;;;;;;;3.50;2.30;;;30.10;34.80;;;;;;4991402;28;20441;-48
2022/07/31 09:18:29;;;;;;;3.13;2.80;;;30.30;33.00;;;;;;4989730;28;20461;-46
2022/07/31 09:20:57;;;;;;;5.13;2.47;;;30.40;32.40;;;;;;4989503;28;20860;-50
2022/07/31 09:23:25;;;;;;;7.40;2.90;;;30.70;32.60;;;;;;4986002;28;20451;-48
2022/07/31 09:26:02;;;;;;;3.33;3.13;;;31.00;33.10;;;;;;4974627;28;20492;-48
2022/07/31 09:28:32;;;;;;;2.90;2.67;;;31.40;33.40;;;;;;4983548;28;20454;-50
2022/07/31 09:30:58;;;;;;;3.47;2.40;;;31.70;32.70;;;;;;4986205;28;20466;-48
2022/07/31 09:33:27;;;;;;;3.33;3.03;;;31.90;31.90;;;;;;4990866;28;20426;-47
2022/07/31 09:35:52;;;;;;;5.23;3.40;;;31.90;31.90;;;;;;4991188;28;20201;-48
2022/07/31 09:38:19;;;;;;;3.97;2.97;;;31.40;32.80;;;;;;4990501;28;20449;-47
2022/07/31 09:40:45;;;;;;;3.23;3.03;;;31.40;33.30;;;;;;4987186;28;20198;-50
2022/07/31 09:43:15;;;;;;;2.60;2.40;;;31.60;32.00;;;;;;4991012;28;20425;-46
2022/07/31 09:45:45;;;;;;;5.37;2.60;;;32.00;32.60;;;;;;4989320;28;20496;-48
2022/07/31 09:48:14;;;;;;;2.70;2.50;;;32.40;29.70;;;;;;4979723;28;20440;-52
2022/07/31 09:51:11;;;;;;;4.77;2.80;;;32.70;29.20;;;;;;4984003;28;20450;-50
2022/07/31 09:53:49;;;;;;;2.50;2.40;;;33.00;29.40;;;;;;4983392;28;20453;-47
2022/07/31 09:56:14;;;;;;;2.50;2.40;;;33.20;28.70;;;;;;4976767;28;20454;-51
2022/07/31 09:58:41;;;;;;;2.53;2.33;;;33.30;28.40;;;;;;4982548;28;20603;-46
2022/07/31 10:01:11;;;;;;;2.30;2.20;;;33.50;28.70;;;;;;4991133;28;20330;-47
2022/07/31 10:03:38;;;;;;;2.77;2.57;;;33.60;28.90;;;;;;4980524;28;20450;-46
2022/07/31 10:06:07;;;;;;;2.90;2.50;;;33.80;28.80;;;;;;4979382;28;21328;-46
2022/07/31 10:08:35;;;;;;;2.60;2.40;;;33.80;29.10;;;;;;4976145;28;20474;-47
2022/07/31 10:11:02;;;;;;;2.73;2.53;;;33.80;28.70;;;;;;4978685;28;20442;-46
2022/07/31 10:13:31;;;;;;;2.30;2.10;;;33.70;28.70;;;;;;4983281;28;20499;-48
2022/07/31 10:16:00;;;;;;;3.00;2.40;;;33.80;28.60;;;;;;4989172;28;20495;-46
2022/07/31 10:18:27;;;;;;;2.60;2.40;;;34.00;28.40;;;;;;4987729;28;20453;-49
2022/07/31 10:20:55;;;;;;;2.13;2.00;;;34.20;28.70;;;;;;4986971;28;20473;-46
2022/07/31 10:23:25;;;;;;;3.73;2.53;;;34.30;28.30;;;;;;4985863;28;20445;-47
2022/07/31 10:25:59;;;;;;;4.33;2.30;;;34.30;28.00;;;;;;4988627;28;20489;-50
2022/07/31 10:28:27;;;;;;;2.50;2.30;;;34.40;28.20;;;;;;4976144;28;20480;-48
2022/07/31 10:30:53;;;;;;;2.63;2.43;;;34.60;28.20;;;;;;4981829;28;20474;-47
2022/07/31 10:33:20;;;;;;;2.50;2.30;;;34.80;27.50;;;;;;4987160;28;20504;-46
2022/07/31 10:35:56;;;;;;;2.30;2.10;;;35.00;28.30;;;;;;4987242;28;20480;-46
2022/07/31 10:39:06;;;;;;;2.20;2.10;;;35.30;27.90;;;;;;4982546;28;20451;-47
2022/07/31 10:41:50;;;;;;;2.30;2.10;;;35.30;26.80;;;;;;4982759;28;20441;-49
2022/07/31 10:44:26;;;;;;;2.27;2.17;;;35.60;27.50;;;;;;4983944;28;20573;-50
2022/07/31 10:46:52;;;;;;;2.50;2.30;;;35.80;27.10;;;;;;4983474;28;20453;-46
2022/07/31 10:49:17;;;;;;;2.40;2.20;;;36.00;26.40;;;;;;4987262;28;20447;-48
2022/07/31 10:51:50;;;;;;;2.80;2.60;;;36.20;26.60;;;;;;4988307;28;20545;-48
2022/07/31 10:54:16;;;;;;;2.30;2.10;;;36.40;26.20;;;;;;4980312;28;20209;-47
2022/07/31 10:56:46;;;;;;;2.07;1.97;;;36.50;26.10;;;;;;4986778;28;20444;-46
2022/07/31 10:59:12;;;;;;;2.33;2.13;;;36.60;25.90;;;;;;4989022;28;20282;-49
2022/07/31 11:01:51;;;;;;;2.50;2.33;;;36.70;26.20;;;;;;4985543;28;20442;-46
2022/07/31 11:04:32;;;;;;;2.90;2.20;;;36.90;26.50;;;;;;4979408;28;20221;-50
2022/07/31 11:06:58;;;;;;;2.23;2.03;;;37.10;25.80;;;;;;4988228;28;20449;-47
2022/07/31 11:09:26;;;;;;;3.43;2.30;;;37.20;25.50;;;;;;4983921;28;20445;-47
2022/07/31 11:11:52;;;;;;;2.57;2.47;;;37.50;25.10;;;;;;4993347;28;20429;-47
2022/07/31 11:14:29;;;;;;;2.47;2.20;;;37.70;25.10;;;;;;4990631;28;20813;-46
2022/07/31 11:16:55;;;;;;;2.20;2.10;;;37.80;24.70;;;;;;4980562;28;20446;-49
2022/07/31 11:19:20;;;;;;;2.70;2.47;;;37.80;24.50;;;;;;4980085;28;20475;-46
2022/07/31 11:21:46;;;;;;;2.60;2.50;;;37.60;24.50;;;;;;4984852;28;20677;-46
2022/07/31 11:24:20;;;;;;;2.20;2.00;;;37.50;24.60;;;;;;4985861;28;20756;-47
2022/07/31 11:26:49;;;;;;;3.33;2.60;;;37.50;24.70;;;;;;4988238;28;20231;-51
2022/07/31 11:29:26;;;;;;;2.97;2.50;;;37.30;24.70;;;;;;4981935;28;20469;-47
2022/07/31 11:31:52;;;;;;;3.60;2.83;;;37.00;25.30;;;;;;4985415;28;20525;-45
2022/07/31 11:34:17;;;;;;;2.67;2.43;;;36.90;25.10;;;;;;4983186;28;20473;-45
2022/07/31 11:36:43;;;;;;;2.30;2.03;;;36.50;25.70;;;;;;4990759;28;20190;-50
2022/07/31 11:39:11;;;;;;;2.73;2.33;;;36.50;25.40;;;;;;4990911;28;20216;-45
2022/07/31 11:41:37;;;;;;;2.47;2.27;;;36.50;25.30;;;;;;4979005;28;20293;-47
2022/07/31 11:44:03;;;;;;;2.53;2.33;;;36.60;25.20;;;;;;4981879;28;21087;-47
2022/07/31 11:46:32;;;;;;;4.40;2.83;;;36.70;25.30;;;;;;4988411;28;20441;-47
2022/07/31 11:48:58;;;;;;;3.17;2.53;;;36.70;25.20;;;;;;4989090;28;20202;-46
2022/07/31 11:51:25;;;;;;;2.27;2.00;;;36.70;25.50;;;;;;4991535;28;20975;-45
2022/07/31 11:53:53;;;;;;;2.30;2.17;;;36.80;25.60;;;;;;4986270;28;20499;-45
2022/07/31 11:56:19;;;;;;;2.30;2.10;;;37.00;25.50;;;;;;4988119;28;20457;-46
2022/07/31 11:58:50;;;;;;;2.80;2.60;;;37.10;25.20;;;;;;4987194;28;20448;-46
2022/07/31 12:01:17;;;;;;;6.97;4.50;;;37.00;25.10;;;;;;4980822;28;20466;-46
2022/07/31 12:03:43;;;;;;;4.33;3.93;;;36.70;25.50;;;;;;4982765;28;20457;-48
2022/07/31 12:06:09;;;;;;;2.50;2.40;;;36.50;25.70;;;;;;4992512;28;20482;-47
2022/07/31 12:08:35;;;;;;;2.50;2.30;;;36.50;25.80;;;;;;4988046;28;20477;-46
2022/07/31 12:11:04;;;;;;;4.60;2.60;;;36.40;25.90;;;;;;4987060;28;20556;-46
2022/07/31 12:13:31;;;;;;;2.37;2.27;;;36.30;25.70;;;;;;4983600;28;20191;-46
2022/07/31 12:16:07;;;;;;;2.77;2.33;;;36.40;25.80;;;;;;4978470;28;20457;-47
2022/07/31 12:18:57;;;;;;;3.40;2.50;;;36.50;25.70;;;;;;4977116;28;20967;-49
2022/07/31 12:21:35;;;;;;;2.30;2.20;;;36.50;25.50;;;;;;4986936;28;20814;-46
2022/07/31 12:24:01;;;;;;;2.70;2.43;;;36.50;25.50;;;;;;4981721;28;20449;-47
2022/07/31 12:26:29;;;;;;;2.77;2.57;;;36.20;25.80;;;;;;4990434;28;20473;-48
2022/07/31 12:28:56;;;;;;;2.67;2.43;;;36.00;25.70;;;;;;4989237;28;20442;-49
2022/07/31 12:31:21;;;;;;;2.67;2.47;;;36.20;25.80;;;;;;4984892;28;20991;-46
2022/07/31 12:33:47;;;;;;;2.87;2.10;;;36.10;25.90;;;;;;4976214;28;20517;-48
2022/07/31 12:36:16;;;;;;;2.90;2.70;;;36.10;25.80;;;;;;4985798;28;20198;-51
2022/07/31 12:38:43;;;;;;;2.77;2.57;;;35.90;26.00;;;;;;4987669;28;20191;-46
2022/07/31 12:41:09;;;;;;;2.47;2.27;;;35.90;26.30;;;;;;4982809;28;20508;-46
2022/07/31 12:43:35;;;;;;;2.23;2.13;;;36.00;26.20;;;;;;4989023;28;20968;-49
2022/07/31 12:46:04;;;;;;;2.37;2.27;;;36.20;26.30;;;;;;4985094;28;20223;-47
2022/07/31 12:48:31;;;;;;;2.90;2.60;;;36.30;26.00;;;;;;4978768;28;20245;-47
2022/07/31 12:50:57;;;;;;;2.40;2.30;;;36.50;25.50;;;;;;4983909;28;20445;-46